sensor_id;sensor_type;location;lat;lon;timestamp;pressure;altitude;pressure_sealevel;temperature
10058;BMP180;5068;51.286;7.518;2024-03-22T00:00:35;99934.00;;;10.90
10058;BMP180;5068;51.286;7.518;2024-03-22T00:02:06;99932.00;;;10.90
10058;BMP180;5068;51.286;7.518;2024-03-22T00:03:38;99941.00;;;10.90
10058;BMP180;5068;51.286;7.518;2024-03-22T00:05:09;99937.00;;;10.90
10058;BMP180;5068;51.286;7.518;2024-03-22T00:06:42;99936.00;;;10.90
10058;BMP180;5068;51.286;7.518;2024-03-22T00:08:13;99929.00;;;10.90
10058;BMP180;5068;51.286;7.518;2024-03-22T00:09:45;99942.00;;;10.90
10058;BMP180;5068;51.286;7.518;2024-03-22T00:11:16;99937.00;;;10.80
10058;BMP180;5068;51.286;7.518;2024-03-22T00:12:49;99932.00;;;10.90
10058;BMP180;5068;51.286;7.518;2024-03-22T00:14:20;99930.00;;;10.80
10058;BMP180;5068;51.286;7.518;2024-03-22T00:15:52;99939.00;;;10.80
10058;BMP180;5068;51.286;7.518;2024-03-22T00:17:23;99936.00;;;10.80
10058;BMP180;5068;51.286;7.518;2024-03-22T00:18:55;99943.00;;;10.80
10058;BMP180;5068;51.286;7.518;2024-03-22T00:20:27;99941.00;;;10.80
10058;BMP180;5068;51.286;7.518;2024-03-22T00:21:58;99931.00;;;10.80
10058;BMP180;5068;51.286;7.518;2024-03-22T00:23:30;99936.00;;;10.80
10058;BMP180;5068;51.286;7.518;2024-03-22T00:25:02;99921.00;;;10.80
10058;BMP180;5068;51.286;7.518;2024-03-22T00:26:33;99930.00;;;10.80
10058;BMP180;5068;51.286;7.518;2024-03-22T00:28:05;99928.00;;;10.70
10058;BMP180;5068;51.286;7.518;2024-03-22T00:29:36;99935.00;;;10.70
10058;BMP180;5068;51.286;7.518;2024-03-22T00:31:09;99933.00;;;10.70
10058;BMP180;5068;51.286;7.518;2024-03-22T00:32:41;99938.00;;;10.70
10058;BMP180;5068;51.286;7.518;2024-03-22T00:34:15;99929.00;;;10.70
10058;BMP180;5068;51.286;7.518;2024-03-22T00:35:47;99932.00;;;10.70
10058;BMP180;5068;51.286;7.518;2024-03-22T00:37:19;99925.00;;;10.60
10058;BMP180;5068;51.286;7.518;2024-03-22T00:38:51;99928.00;;;10.60
10058;BMP180;5068;51.286;7.518;2024-03-22T00:40:22;99929.00;;;10.60
10058;BMP180;5068;51.286;7.518;2024-03-22T00:41:53;99928.00;;;10.60
10058;BMP180;5068;51.286;7.518;2024-03-22T00:43:25;99922.00;;;10.60
10058;BMP180;5068;51.286;7.518;2024-03-22T00:44:57;99925.00;;;10.60
10058;BMP180;5068;51.286;7.518;2024-03-22T00:46:28;99914.00;;;10.60
10058;BMP180;5068;51.286;7.518;2024-03-22T00:48:00;99911.00;;;10.60
10058;BMP180;5068;51.286;7.518;2024-03-22T00:49:31;99913.00;;;10.60
10058;BMP180;5068;51.286;7.518;2024-03-22T00:51:03;99908.00;;;10.60
10058;BMP180;5068;51.286;7.518;2024-03-22T00:52:35;99916.00;;;10.70
10058;BMP180;5068;51.286;7.518;2024-03-22T00:54:06;99909.00;;;10.70
10058;BMP180;5068;51.286;7.518;2024-03-22T00:55:38;99905.00;;;10.70
10058;BMP180;5068;51.286;7.518;2024-03-22T00:57:09;99895.00;;;10.70
10058;BMP180;5068;51.286;7.518;2024-03-22T00:58:41;99895.00;;;10.70
10058;BMP180;5068;51.286;7.518;2024-03-22T01:00:13;99900.00;;;10.70
10058;BMP180;5068;51.286;7.518;2024-03-22T01:01:45;99885.00;;;10.70
10058;BMP180;5068;51.286;7.518;2024-03-22T01:03:17;99889.00;;;10.70
10058;BMP180;5068;51.286;7.518;2024-03-22T01:04:48;99887.00;;;10.70
10058;BMP180;5068;51.286;7.518;2024-03-22T01:06:19;99884.00;;;10.70
10058;BMP180;5068;51.286;7.518;2024-03-22T01:07:56;99881.00;;;10.70
10058;BMP180;5068;51.286;7.518;2024-03-22T01:09:27;99877.00;;;10.70
10058;BMP180;5068;51.286;7.518;2024-03-22T01:10:59;99879.00;;;10.70
10058;BMP180;5068;51.286;7.518;2024-03-22T01:12:31;99870.00;;;10.70
10058;BMP180;5068;51.286;7.518;2024-03-22T01:14:02;99874.00;;;10.70
10058;BMP180;5068;51.286;7.518;2024-03-22T01:15:34;99865.00;;;10.70
10058;BMP180;5068;51.286;7.518;2024-03-22T01:17:05;99863.00;;;10.70
10058;BMP180;5068;51.286;7.518;2024-03-22T01:18:38;99861.00;;;10.70
10058;BMP180;5068;51.286;7.518;2024-03-22T01:20:10;99863.00;;;10.70
10058;BMP180;5068;51.286;7.518;2024-03-22T01:21:42;99853.00;;;10.70
10058;BMP180;5068;51.286;7.518;2024-03-22T01:23:13;99849.00;;;10.70
10058;BMP180;5068;51.286;7.518;2024-03-22T01:24:45;99867.00;;;10.70
10058;BMP180;5068;51.286;7.518;2024-03-22T01:26:16;99852.00;;;10.70
10058;BMP180;5068;51.286;7.518;2024-03-22T01:27:48;99852.00;;;10.70
10058;BMP180;5068;51.286;7.518;2024-03-22T01:29:19;99853.00;;;10.70
10058;BMP180;5068;51.286;7.518;2024-03-22T01:30:51;99853.00;;;10.70
10058;BMP180;5068;51.286;7.518;2024-03-22T01:32:22;99840.00;;;10.70
10058;BMP180;5068;51.286;7.518;2024-03-22T01:33:53;99846.00;;;10.70
10058;BMP180;5068;51.286;7.518;2024-03-22T01:35:25;99846.00;;;10.70
10058;BMP180;5068;51.286;7.518;2024-03-22T01:36:56;99843.00;;;10.70
10058;BMP180;5068;51.286;7.518;2024-03-22T01:38:27;99834.00;;;10.70
10058;BMP180;5068;51.286;7.518;2024-03-22T01:39:59;99828.00;;;10.70
10058;BMP180;5068;51.286;7.518;2024-03-22T01:41:30;99838.00;;;10.70
10058;BMP180;5068;51.286;7.518;2024-03-22T01:43:01;99836.00;;;10.70
10058;BMP180;5068;51.286;7.518;2024-03-22T01:44:33;99830.00;;;10.70
10058;BMP180;5068;51.286;7.518;2024-03-22T01:46:04;99826.00;;;10.70
10058;BMP180;5068;51.286;7.518;2024-03-22T01:47:39;99822.00;;;10.70
10058;BMP180;5068;51.286;7.518;2024-03-22T01:49:15;99830.00;;;10.70
10058;BMP180;5068;51.286;7.518;2024-03-22T01:50:47;99817.00;;;10.70
10058;BMP180;5068;51.286;7.518;2024-03-22T01:52:18;99813.00;;;10.70
10058;BMP180;5068;51.286;7.518;2024-03-22T01:53:51;99813.00;;;10.80
10058;BMP180;5068;51.286;7.518;2024-03-22T01:55:24;99805.00;;;10.70
10058;BMP180;5068;51.286;7.518;2024-03-22T01:56:56;99812.00;;;10.80
10058;BMP180;5068;51.286;7.518;2024-03-22T01:58:28;99803.00;;;10.80
10058;BMP180;5068;51.286;7.518;2024-03-22T02:00:00;99802.00;;;10.80
10058;BMP180;5068;51.286;7.518;2024-03-22T02:01:32;99800.00;;;10.80
10058;BMP180;5068;51.286;7.518;2024-03-22T02:03:04;99797.00;;;10.80
10058;BMP180;5068;51.286;7.518;2024-03-22T02:04:36;99805.00;;;10.80
10058;BMP180;5068;51.286;7.518;2024-03-22T02:06:07;99794.00;;;10.80
10058;BMP180;5068;51.286;7.518;2024-03-22T02:07:41;99798.00;;;10.80
10058;BMP180;5068;51.286;7.518;2024-03-22T02:09:14;99794.00;;;10.90
10058;BMP180;5068;51.286;7.518;2024-03-22T02:10:46;99799.00;;;10.90
10058;BMP180;5068;51.286;7.518;2024-03-22T02:12:18;99797.00;;;10.90
10058;BMP180;5068;51.286;7.518;2024-03-22T02:13:50;99806.00;;;10.90
10058;BMP180;5068;51.286;7.518;2024-03-22T02:15:21;99795.00;;;10.90
10058;BMP180;5068;51.286;7.518;2024-03-22T02:16:53;99787.00;;;10.90
10058;BMP180;5068;51.286;7.518;2024-03-22T02:18:24;99792.00;;;10.90
10058;BMP180;5068;51.286;7.518;2024-03-22T02:19:56;99783.00;;;10.90
10058;BMP180;5068;51.286;7.518;2024-03-22T02:21:27;99778.00;;;10.90
10058;BMP180;5068;51.286;7.518;2024-03-22T02:22:58;99782.00;;;10.80
10058;BMP180;5068;51.286;7.518;2024-03-22T02:24:30;99770.00;;;10.90
10058;BMP180;5068;51.286;7.518;2024-03-22T02:26:04;99782.00;;;10.80
10058;BMP180;5068;51.286;7.518;2024-03-22T02:27:37;99751.00;;;10.80
10058;BMP180;5068;51.286;7.518;2024-03-22T02:29:09;99747.00;;;10.80
10058;BMP180;5068;51.286;7.518;2024-03-22T02:30:40;99751.00;;;10.80
10058;BMP180;5068;51.286;7.518;2024-03-22T02:32:11;99743.00;;;10.80
10058;BMP180;5068;51.286;7.518;2024-03-22T02:33:43;99742.00;;;10.80
10058;BMP180;5068;51.286;7.518;2024-03-22T02:35:15;99740.00;;;10.80
10058;BMP180;5068;51.286;7.518;2024-03-22T02:36:47;99734.00;;;10.80
10058;BMP180;5068;51.286;7.518;2024-03-22T02:38:19;99741.00;;;10.80
10058;BMP180;5068;51.286;7.518;2024-03-22T02:39:50;99753.00;;;10.90
10058;BMP180;5068;51.286;7.518;2024-03-22T02:41:22;99744.00;;;10.90
10058;BMP180;5068;51.286;7.518;2024-03-22T02:42:54;99747.00;;;10.90
10058;BMP180;5068;51.286;7.518;2024-03-22T02:44:25;99742.00;;;10.90
10058;BMP180;5068;51.286;7.518;2024-03-22T02:45:56;99738.00;;;10.90
10058;BMP180;5068;51.286;7.518;2024-03-22T02:47:28;99744.00;;;10.90
10058;BMP180;5068;51.286;7.518;2024-03-22T02:48:59;99741.00;;;10.90
10058;BMP180;5068;51.286;7.518;2024-03-22T02:50:35;99741.00;;;11.00
10058;BMP180;5068;51.286;7.518;2024-03-22T02:52:06;99733.00;;;11.00
10058;BMP180;5068;51.286;7.518;2024-03-22T02:53:38;99734.00;;;11.00
10058;BMP180;5068;51.286;7.518;2024-03-22T02:55:09;99725.00;;;11.00
10058;BMP180;5068;51.286;7.518;2024-03-22T02:56:40;99727.00;;;11.00
10058;BMP180;5068;51.286;7.518;2024-03-22T02:58:11;99729.00;;;11.00
10058;BMP180;5068;51.286;7.518;2024-03-22T02:59:43;99729.00;;;11.00
10058;BMP180;5068;51.286;7.518;2024-03-22T03:01:14;99723.00;;;11.00
10058;BMP180;5068;51.286;7.518;2024-03-22T03:02:46;99727.00;;;11.00
10058;BMP180;5068;51.286;7.518;2024-03-22T03:04:17;99714.00;;;11.00
10058;BMP180;5068;51.286;7.518;2024-03-22T03:05:49;99724.00;;;11.00
10058;BMP180;5068;51.286;7.518;2024-03-22T03:07:20;99723.00;;;11.10
10058;BMP180;5068;51.286;7.518;2024-03-22T03:08:52;99716.00;;;11.10
10058;BMP180;5068;51.286;7.518;2024-03-22T03:10:23;99717.00;;;11.10
10058;BMP180;5068;51.286;7.518;2024-03-22T03:11:54;99711.00;;;11.10
10058;BMP180;5068;51.286;7.518;2024-03-22T03:13:26;99720.00;;;11.00
10058;BMP180;5068;51.286;7.518;2024-03-22T03:14:59;99707.00;;;11.10
10058;BMP180;5068;51.286;7.518;2024-03-22T03:16:31;99715.00;;;11.00
10058;BMP180;5068;51.286;7.518;2024-03-22T03:18:02;99704.00;;;11.10
10058;BMP180;5068;51.286;7.518;2024-03-22T03:19:34;99706.00;;;11.10
10058;BMP180;5068;51.286;7.518;2024-03-22T03:21:05;99700.00;;;11.10
10058;BMP180;5068;51.286;7.518;2024-03-22T03:22:37;99706.00;;;11.10
10058;BMP180;5068;51.286;7.518;2024-03-22T03:24:08;99705.00;;;11.10
10058;BMP180;5068;51.286;7.518;2024-03-22T03:25:40;99705.00;;;11.10
10058;BMP180;5068;51.286;7.518;2024-03-22T03:27:12;99701.00;;;11.10
10058;BMP180;5068;51.286;7.518;2024-03-22T03:28:43;99700.00;;;11.10
10058;BMP180;5068;51.286;7.518;2024-03-22T03:30:15;99703.00;;;11.10
10058;BMP180;5068;51.286;7.518;2024-03-22T03:31:46;99697.00;;;11.10
10058;BMP180;5068;51.286;7.518;2024-03-22T03:33:18;99692.00;;;11.20
10058;BMP180;5068;51.286;7.518;2024-03-22T03:34:49;99689.00;;;11.20
10058;BMP180;5068;51.286;7.518;2024-03-22T03:36:21;99688.00;;;11.20
10058;BMP180;5068;51.286;7.518;2024-03-22T03:37:52;99683.00;;;11.20
10058;BMP180;5068;51.286;7.518;2024-03-22T03:39:24;99688.00;;;11.20
10058;BMP180;5068;51.286;7.518;2024-03-22T03:40:56;99689.00;;;11.30
10058;BMP180;5068;51.286;7.518;2024-03-22T03:42:27;99691.00;;;11.30
10058;BMP180;5068;51.286;7.518;2024-03-22T03:43:59;99691.00;;;11.30
10058;BMP180;5068;51.286;7.518;2024-03-22T03:45:30;99689.00;;;11.30
10058;BMP180;5068;51.286;7.518;2024-03-22T03:47:02;99690.00;;;11.40
10058;BMP180;5068;51.286;7.518;2024-03-22T03:48:34;99682.00;;;11.40
10058;BMP180;5068;51.286;7.518;2024-03-22T03:50:05;99686.00;;;11.40
10058;BMP180;5068;51.286;7.518;2024-03-22T03:51:37;99687.00;;;11.40
10058;BMP180;5068;51.286;7.518;2024-03-22T03:53:08;99675.00;;;11.40
10058;BMP180;5068;51.286;7.518;2024-03-22T03:54:40;99676.00;;;11.40
10058;BMP180;5068;51.286;7.518;2024-03-22T03:56:11;99678.00;;;11.40
10058;BMP180;5068;51.286;7.518;2024-03-22T03:57:43;99672.00;;;11.50
10058;BMP180;5068;51.286;7.518;2024-03-22T03:59:14;99676.00;;;11.50
10058;BMP180;5068;51.286;7.518;2024-03-22T04:00:46;99657.00;;;11.50
10058;BMP180;5068;51.286;7.518;2024-03-22T04:02:17;99657.00;;;11.50
10058;BMP180;5068;51.286;7.518;2024-03-22T04:03:49;99658.00;;;11.50
10058;BMP180;5068;51.286;7.518;2024-03-22T04:05:20;99663.00;;;11.50
10058;BMP180;5068;51.286;7.518;2024-03-22T04:06:52;99655.00;;;11.50
10058;BMP180;5068;51.286;7.518;2024-03-22T04:08:25;99663.00;;;11.50
10058;BMP180;5068;51.286;7.518;2024-03-22T04:09:56;99663.00;;;11.50
10058;BMP180;5068;51.286;7.518;2024-03-22T04:11:28;99657.00;;;11.50
10058;BMP180;5068;51.286;7.518;2024-03-22T04:12:59;99653.00;;;11.50
10058;BMP180;5068;51.286;7.518;2024-03-22T04:14:31;99657.00;;;11.50
10058;BMP180;5068;51.286;7.518;2024-03-22T04:16:03;99654.00;;;11.50
10058;BMP180;5068;51.286;7.518;2024-03-22T04:17:34;99639.00;;;11.50
10058;BMP180;5068;51.286;7.518;2024-03-22T04:19:06;99635.00;;;11.50
10058;BMP180;5068;51.286;7.518;2024-03-22T04:20:37;99647.00;;;11.50
10058;BMP180;5068;51.286;7.518;2024-03-22T04:22:09;99642.00;;;11.50
10058;BMP180;5068;51.286;7.518;2024-03-22T04:23:40;99643.00;;;11.50
10058;BMP180;5068;51.286;7.518;2024-03-22T04:25:11;99639.00;;;11.50
10058;BMP180;5068;51.286;7.518;2024-03-22T04:26:43;99639.00;;;11.40
10058;BMP180;5068;51.286;7.518;2024-03-22T04:28:15;99629.00;;;11.40
10058;BMP180;5068;51.286;7.518;2024-03-22T04:29:49;99628.00;;;11.40
10058;BMP180;5068;51.286;7.518;2024-03-22T04:31:21;99628.00;;;11.40
10058;BMP180;5068;51.286;7.518;2024-03-22T04:32:52;99629.00;;;11.40
10058;BMP180;5068;51.286;7.518;2024-03-22T04:34:23;99630.00;;;11.40
10058;BMP180;5068;51.286;7.518;2024-03-22T04:35:56;99620.00;;;11.30
10058;BMP180;5068;51.286;7.518;2024-03-22T04:37:28;99620.00;;;11.30
10058;BMP180;5068;51.286;7.518;2024-03-22T04:38:59;99616.00;;;11.30
10058;BMP180;5068;51.286;7.518;2024-03-22T04:40:31;99618.00;;;11.30
10058;BMP180;5068;51.286;7.518;2024-03-22T04:42:02;99606.00;;;11.30
10058;BMP180;5068;51.286;7.518;2024-03-22T04:43:34;99608.00;;;11.30
10058;BMP180;5068;51.286;7.518;2024-03-22T04:45:06;99609.00;;;11.20
10058;BMP180;5068;51.286;7.518;2024-03-22T04:46:38;99612.00;;;11.20
10058;BMP180;5068;51.286;7.518;2024-03-22T04:48:11;99603.00;;;11.20
10058;BMP180;5068;51.286;7.518;2024-03-22T04:49:44;99611.00;;;11.20
10058;BMP180;5068;51.286;7.518;2024-03-22T04:51:15;99600.00;;;11.10
10058;BMP180;5068;51.286;7.518;2024-03-22T04:52:46;99599.00;;;11.10
10058;BMP180;5068;51.286;7.518;2024-03-22T04:54:18;99590.00;;;11.10
10058;BMP180;5068;51.286;7.518;2024-03-22T04:55:50;99597.00;;;11.10
10058;BMP180;5068;51.286;7.518;2024-03-22T04:57:22;99595.00;;;11.10
10058;BMP180;5068;51.286;7.518;2024-03-22T04:58:54;99591.00;;;11.00
10058;BMP180;5068;51.286;7.518;2024-03-22T05:00:28;99592.00;;;11.00
10058;BMP180;5068;51.286;7.518;2024-03-22T05:01:59;99587.00;;;11.00
10058;BMP180;5068;51.286;7.518;2024-03-22T05:03:31;99580.00;;;11.00
10058;BMP180;5068;51.286;7.518;2024-03-22T05:05:03;99585.00;;;11.00
10058;BMP180;5068;51.286;7.518;2024-03-22T05:06:35;99584.00;;;10.90
10058;BMP180;5068;51.286;7.518;2024-03-22T05:08:07;99581.00;;;10.90
10058;BMP180;5068;51.286;7.518;2024-03-22T05:09:38;99580.00;;;10.90
10058;BMP180;5068;51.286;7.518;2024-03-22T05:11:10;99567.00;;;10.90
10058;BMP180;5068;51.286;7.518;2024-03-22T05:12:41;99565.00;;;10.80
10058;BMP180;5068;51.286;7.518;2024-03-22T05:14:12;99566.00;;;10.80
10058;BMP180;5068;51.286;7.518;2024-03-22T05:15:44;99563.00;;;10.80
10058;BMP180;5068;51.286;7.518;2024-03-22T05:17:16;99557.00;;;10.80
10058;BMP180;5068;51.286;7.518;2024-03-22T05:18:47;99572.00;;;10.80
10058;BMP180;5068;51.286;7.518;2024-03-22T05:20:20;99565.00;;;10.80
10058;BMP180;5068;51.286;7.518;2024-03-22T05:21:51;99569.00;;;10.70
10058;BMP180;5068;51.286;7.518;2024-03-22T05:23:22;99555.00;;;10.70
10058;BMP180;5068;51.286;7.518;2024-03-22T05:24:54;99567.00;;;10.70
10058;BMP180;5068;51.286;7.518;2024-03-22T05:26:25;99561.00;;;10.70
10058;BMP180;5068;51.286;7.518;2024-03-22T05:27:57;99562.00;;;10.70
10058;BMP180;5068;51.286;7.518;2024-03-22T05:29:29;99561.00;;;10.70
10058;BMP180;5068;51.286;7.518;2024-03-22T05:31:00;99567.00;;;10.70
10058;BMP180;5068;51.286;7.518;2024-03-22T05:32:31;99554.00;;;10.70
10058;BMP180;5068;51.286;7.518;2024-03-22T05:34:03;99568.00;;;10.70
10058;BMP180;5068;51.286;7.518;2024-03-22T05:35:34;99564.00;;;10.70
10058;BMP180;5068;51.286;7.518;2024-03-22T05:37:06;99552.00;;;10.70
10058;BMP180;5068;51.286;7.518;2024-03-22T05:38:37;99555.00;;;10.70
10058;BMP180;5068;51.286;7.518;2024-03-22T05:40:09;99553.00;;;10.70
10058;BMP180;5068;51.286;7.518;2024-03-22T05:41:41;99564.00;;;10.70
10058;BMP180;5068;51.286;7.518;2024-03-22T05:43:13;99553.00;;;10.60
10058;BMP180;5068;51.286;7.518;2024-03-22T05:44:45;99550.00;;;10.70
10058;BMP180;5068;51.286;7.518;2024-03-22T05:46:16;99561.00;;;10.70
10058;BMP180;5068;51.286;7.518;2024-03-22T05:47:48;99553.00;;;10.70
10058;BMP180;5068;51.286;7.518;2024-03-22T05:49:19;99564.00;;;10.70
10058;BMP180;5068;51.286;7.518;2024-03-22T05:50:51;99566.00;;;10.70
10058;BMP180;5068;51.286;7.518;2024-03-22T05:52:23;99556.00;;;10.70
10058;BMP180;5068;51.286;7.518;2024-03-22T05:53:56;99556.00;;;10.80
10058;BMP180;5068;51.286;7.518;2024-03-22T05:55:28;99564.00;;;10.80
10058;BMP180;5068;51.286;7.518;2024-03-22T05:57:02;99565.00;;;10.80
10058;BMP180;5068;51.286;7.518;2024-03-22T05:58:36;99564.00;;;10.80
10058;BMP180;5068;51.286;7.518;2024-03-22T06:00:08;99566.00;;;10.90
10058;BMP180;5068;51.286;7.518;2024-03-22T06:01:39;99562.00;;;10.90
10058;BMP180;5068;51.286;7.518;2024-03-22T06:03:10;99569.00;;;10.90
10058;BMP180;5068;51.286;7.518;2024-03-22T06:04:42;99567.00;;;10.90
10058;BMP180;5068;51.286;7.518;2024-03-22T06:06:14;99567.00;;;10.90
10058;BMP180;5068;51.286;7.518;2024-03-22T06:07:45;99570.00;;;11.00
10058;BMP180;5068;51.286;7.518;2024-03-22T06:09:17;99567.00;;;11.00
10058;BMP180;5068;51.286;7.518;2024-03-22T06:10:55;99560.00;;;11.00
10058;BMP180;5068;51.286;7.518;2024-03-22T06:12:29;99555.00;;;11.00
10058;BMP180;5068;51.286;7.518;2024-03-22T06:14:01;99551.00;;;11.10
10058;BMP180;5068;51.286;7.518;2024-03-22T06:15:32;99556.00;;;11.10
10058;BMP180;5068;51.286;7.518;2024-03-22T06:17:04;99561.00;;;11.10
10058;BMP180;5068;51.286;7.518;2024-03-22T06:18:39;99561.00;;;11.10
10058;BMP180;5068;51.286;7.518;2024-03-22T06:20:12;99560.00;;;11.20
10058;BMP180;5068;51.286;7.518;2024-03-22T06:21:43;99564.00;;;11.20
10058;BMP180;5068;51.286;7.518;2024-03-22T06:23:15;99544.00;;;11.20
10058;BMP180;5068;51.286;7.518;2024-03-22T06:24:46;99554.00;;;11.30
10058;BMP180;5068;51.286;7.518;2024-03-22T06:26:18;99544.00;;;11.30
10058;BMP180;5068;51.286;7.518;2024-03-22T06:27:49;99555.00;;;11.40
10058;BMP180;5068;51.286;7.518;2024-03-22T06:29:22;99539.00;;;11.40
10058;BMP180;5068;51.286;7.518;2024-03-22T06:30:53;99552.00;;;11.50
10058;BMP180;5068;51.286;7.518;2024-03-22T06:32:25;99549.00;;;11.50
10058;BMP180;5068;51.286;7.518;2024-03-22T06:33:56;99548.00;;;11.60
10058;BMP180;5068;51.286;7.518;2024-03-22T06:35:35;99549.00;;;11.70
10058;BMP180;5068;51.286;7.518;2024-03-22T06:37:06;99551.00;;;11.70
10058;BMP180;5068;51.286;7.518;2024-03-22T06:38:38;99532.00;;;11.80
10058;BMP180;5068;51.286;7.518;2024-03-22T06:40:10;99524.00;;;11.80
10058;BMP180;5068;51.286;7.518;2024-03-22T06:41:42;99532.00;;;11.90
10058;BMP180;5068;51.286;7.518;2024-03-22T06:43:13;99528.00;;;11.90
10058;BMP180;5068;51.286;7.518;2024-03-22T06:44:45;99529.00;;;12.00
10058;BMP180;5068;51.286;7.518;2024-03-22T06:46:16;99525.00;;;12.00
10058;BMP180;5068;51.286;7.518;2024-03-22T06:47:53;99519.00;;;12.10
10058;BMP180;5068;51.286;7.518;2024-03-22T06:49:30;99516.00;;;12.10
10058;BMP180;5068;51.286;7.518;2024-03-22T06:51:02;99515.00;;;12.20
10058;BMP180;5068;51.286;7.518;2024-03-22T06:52:33;99515.00;;;12.20
10058;BMP180;5068;51.286;7.518;2024-03-22T06:54:05;99524.00;;;12.30
10058;BMP180;5068;51.286;7.518;2024-03-22T06:55:36;99515.00;;;12.30
10058;BMP180;5068;51.286;7.518;2024-03-22T06:57:08;99518.00;;;12.40
10058;BMP180;5068;51.286;7.518;2024-03-22T06:58:39;99515.00;;;12.40
10058;BMP180;5068;51.286;7.518;2024-03-22T07:00:12;99517.00;;;12.40
10058;BMP180;5068;51.286;7.518;2024-03-22T07:01:44;99513.00;;;12.50
10058;BMP180;5068;51.286;7.518;2024-03-22T07:03:16;99515.00;;;12.60
10058;BMP180;5068;51.286;7.518;2024-03-22T07:04:48;99509.00;;;12.60
10058;BMP180;5068;51.286;7.518;2024-03-22T07:06:19;99508.00;;;12.70
10058;BMP180;5068;51.286;7.518;2024-03-22T07:07:51;99511.00;;;12.70
10058;BMP180;5068;51.286;7.518;2024-03-22T07:09:27;99508.00;;;12.80
10058;BMP180;5068;51.286;7.518;2024-03-22T07:11:05;99505.00;;;12.90
10058;BMP180;5068;51.286;7.518;2024-03-22T07:12:37;99507.00;;;12.90
10058;BMP180;5068;51.286;7.518;2024-03-22T07:14:09;99502.00;;;13.00
10058;BMP180;5068;51.286;7.518;2024-03-22T07:15:40;99511.00;;;13.00
10058;BMP180;5068;51.286;7.518;2024-03-22T07:17:11;99501.00;;;13.10
10058;BMP180;5068;51.286;7.518;2024-03-22T07:18:43;99506.00;;;13.20
10058;BMP180;5068;51.286;7.518;2024-03-22T07:20:14;99502.00;;;13.20
10058;BMP180;5068;51.286;7.518;2024-03-22T07:21:47;99509.00;;;13.30
10058;BMP180;5068;51.286;7.518;2024-03-22T07:23:18;99503.00;;;13.40
10058;BMP180;5068;51.286;7.518;2024-03-22T07:24:50;99499.00;;;13.40
10058;BMP180;5068;51.286;7.518;2024-03-22T07:26:22;99503.00;;;13.50
10058;BMP180;5068;51.286;7.518;2024-03-22T07:27:54;99490.00;;;13.50
10058;BMP180;5068;51.286;7.518;2024-03-22T07:29:25;99503.00;;;13.60
10058;BMP180;5068;51.286;7.518;2024-03-22T07:30:57;99492.00;;;13.70
10058;BMP180;5068;51.286;7.518;2024-03-22T07:32:30;99491.00;;;13.70
10058;BMP180;5068;51.286;7.518;2024-03-22T07:34:01;99504.00;;;13.80
10058;BMP180;5068;51.286;7.518;2024-03-22T07:35:34;99490.00;;;13.80
10058;BMP180;5068;51.286;7.518;2024-03-22T07:37:06;99491.00;;;13.80
10058;BMP180;5068;51.286;7.518;2024-03-22T07:38:37;99489.00;;;13.90
10058;BMP180;5068;51.286;7.518;2024-03-22T07:40:09;99478.00;;;13.90
10058;BMP180;5068;51.286;7.518;2024-03-22T07:41:41;99492.00;;;14.00
10058;BMP180;5068;51.286;7.518;2024-03-22T07:43:13;99490.00;;;14.00
10058;BMP180;5068;51.286;7.518;2024-03-22T07:44:45;99491.00;;;14.00
10058;BMP180;5068;51.286;7.518;2024-03-22T07:46:17;99490.00;;;14.10
10058;BMP180;5068;51.286;7.518;2024-03-22T07:47:48;99490.00;;;14.10
10058;BMP180;5068;51.286;7.518;2024-03-22T07:49:20;99489.00;;;14.20
10058;BMP180;5068;51.286;7.518;2024-03-22T07:51:01;99492.00;;;14.20
10058;BMP180;5068;51.286;7.518;2024-03-22T07:52:32;99490.00;;;14.20
10058;BMP180;5068;51.286;7.518;2024-03-22T07:54:04;99490.00;;;14.30
10058;BMP180;5068;51.286;7.518;2024-03-22T07:55:35;99489.00;;;14.30
10058;BMP180;5068;51.286;7.518;2024-03-22T07:57:07;99485.00;;;14.40
10058;BMP180;5068;51.286;7.518;2024-03-22T07:58:39;99484.00;;;14.40
10058;BMP180;5068;51.286;7.518;2024-03-22T08:00:11;99487.00;;;14.40
10058;BMP180;5068;51.286;7.518;2024-03-22T08:01:45;99481.00;;;14.50
10058;BMP180;5068;51.286;7.518;2024-03-22T08:03:18;99480.00;;;14.50
10058;BMP180;5068;51.286;7.518;2024-03-22T08:04:49;99476.00;;;14.60
10058;BMP180;5068;51.286;7.518;2024-03-22T08:06:21;99470.00;;;14.60
10058;BMP180;5068;51.286;7.518;2024-03-22T08:07:53;99480.00;;;14.70
10058;BMP180;5068;51.286;7.518;2024-03-22T08:09:24;99483.00;;;14.70
10058;BMP180;5068;51.286;7.518;2024-03-22T08:10:55;99479.00;;;14.80
10058;BMP180;5068;51.286;7.518;2024-03-22T08:12:27;99488.00;;;14.90
10058;BMP180;5068;51.286;7.518;2024-03-22T08:13:58;99488.00;;;14.90
10058;BMP180;5068;51.286;7.518;2024-03-22T08:15:35;99483.00;;;15.00
10058;BMP180;5068;51.286;7.518;2024-03-22T08:17:07;99484.00;;;15.00
10058;BMP180;5068;51.286;7.518;2024-03-22T08:18:40;99476.00;;;15.10
10058;BMP180;5068;51.286;7.518;2024-03-22T08:20:11;99480.00;;;15.10
10058;BMP180;5068;51.286;7.518;2024-03-22T08:21:42;99475.00;;;15.20
10058;BMP180;5068;51.286;7.518;2024-03-22T08:23:13;99475.00;;;15.20
10058;BMP180;5068;51.286;7.518;2024-03-22T08:24:44;99473.00;;;15.30
10058;BMP180;5068;51.286;7.518;2024-03-22T08:26:15;99475.00;;;15.30
10058;BMP180;5068;51.286;7.518;2024-03-22T08:27:47;99467.00;;;15.40
10058;BMP180;5068;51.286;7.518;2024-03-22T08:29:18;99471.00;;;15.40
10058;BMP180;5068;51.286;7.518;2024-03-22T08:30:49;99463.00;;;15.50
10058;BMP180;5068;51.286;7.518;2024-03-22T08:32:20;99468.00;;;15.50
10058;BMP180;5068;51.286;7.518;2024-03-22T08:33:52;99466.00;;;15.50
10058;BMP180;5068;51.286;7.518;2024-03-22T08:35:23;99448.00;;;15.60
10058;BMP180;5068;51.286;7.518;2024-03-22T08:36:54;99453.00;;;15.60
10058;BMP180;5068;51.286;7.518;2024-03-22T08:38:25;99454.00;;;15.70
10058;BMP180;5068;51.286;7.518;2024-03-22T08:39:58;99448.00;;;15.70
10058;BMP180;5068;51.286;7.518;2024-03-22T08:41:29;99457.00;;;15.80
10058;BMP180;5068;51.286;7.518;2024-03-22T08:43:00;99446.00;;;15.80
10058;BMP180;5068;51.286;7.518;2024-03-22T08:44:32;99451.00;;;15.90
10058;BMP180;5068;51.286;7.518;2024-03-22T08:46:04;99457.00;;;15.90
10058;BMP180;5068;51.286;7.518;2024-03-22T08:47:35;99453.00;;;15.90
10058;BMP180;5068;51.286;7.518;2024-03-22T08:49:06;99457.00;;;16.00
10058;BMP180;5068;51.286;7.518;2024-03-22T08:50:37;99448.00;;;16.00
10058;BMP180;5068;51.286;7.518;2024-03-22T08:52:09;99440.00;;;16.10
10058;BMP180;5068;51.286;7.518;2024-03-22T08:53:40;99440.00;;;16.10
10058;BMP180;5068;51.286;7.518;2024-03-22T08:55:11;99433.00;;;16.20
10058;BMP180;5068;51.286;7.518;2024-03-22T08:56:42;99437.00;;;16.20